CheckWX is a tool to help pilots better visualize weather data.  It is not intended as a substitute for an official pre-flight weather briefing.

06:12:49 UTC

EKRK TAF
Copenhagen Roskilde Airport
Copenhagen, Denmark
TAF EKRK 142322Z 1500/1509 18005KT 9000 -RA BKN008 TEMPO 1500/1504 2500 SHRA BKN004 BKN040CB TEMPO 1504/1509 4000 SHRA BKN020CB BECMG 1506/1508 27010KT

Jul-15@
00:00 UTC

Jul-15 @ 00:00 UTC

Jul-15@
06:00 UTC

Jul-15 @ 06:00 UTC

TAF EKRK 142322Z 1500/1509 18005KT 9000 -RA BKN008

Expired

Wind
  • 180° at 5 KTS
Conditions
Light Rain
Cloud Levels
  • Broken at 800' AGL

Jul-15@
00:00 UTC

Jul-15 @ 00:00 UTC

Jul-15@
04:00 UTC

Jul-15 @ 04:00 UTC

TEMPO 1500/1504 2500 SHRA BKN004 BKN040CB

Expired

Conditions
Showers, Rain
Cloud Levels
  • Broken at 400' AGL
  • Broken at 4,000' AGL

Jul-15@
04:00 UTC

Jul-15 @ 04:00 UTC

Jul-15@
09:00 UTC

Jul-15 @ 09:00 UTC

TEMPO 1504/1509 4000 SHRA BKN020CB

Temporary

Temporary Changes expected for less than half the time period

Conditions
Showers, Rain
Cloud Levels
  • Broken at 2,000' AGL

Jul-15@
06:00 UTC

Jul-15 @ 06:00 UTC

Jul-15@
09:00 UTC

Jul-15 @ 09:00 UTC

BECMG 1506/1508 27010KT

Becoming

Becoming Conditions expected by Wed, Jul 15, 2020 @ 08:00 UTC

Wind
  • 270° at 10 KTS
Conditions
Light Rain
Cloud Levels
  • Broken at 800' AGL